Terminal Aerodrome Forecast
Issued by NWS Cleveland, OH

Home | Current Version | Previous Version | Text Only | Print | Product List | Glossary Off
Versions: 1 2 3 4 5 6 7 8 9 10 11 12 13 14 15

000
FTUS41 KCLE 132330
TAFCAK
TAF
KCAK 132330Z 1400/1424 03005KT P6SM SCT250
     FM140900 VRB03KT 2SM BR SCT250
     FM141300 13004KT P6SM BKN250
     FM141600 17006KT P6SM FEW040 BKN250=

USA.gov is the U.S. government's official web portal to all federal, state and local government web resources and services.